Time;durP1;ratioP1;P1;durP2;ratioP2;P2;SDS_P1;SDS_P2;PMS_P1;PMS_P2;Temp;Humidity;BMP_temperature;BMP_pressure;BME280_temperature;BME280_humidity;BME280_pressure;Samples;Min_cycle;Max_cycle;Signal;HPM_P1;HPM_P2
2022/09/20 00:02:02;;;;;;;;;;;;;;;9.27;100.00;98709.10;105196;1270;62158;-74
2022/09/20 00:04:28;;;;;;;;;;;;;;;9.27;100.00;98712.80;105190;1270;62158;-74
2022/09/20 00:06:54;;;;;;;;;;;;;;;9.28;100.00;98712.39;105209;1270;62186;-74
2022/09/20 00:09:20;;;;;;;;;;;;;;;9.29;100.00;98713.91;105242;1270;62176;-73
2022/09/20 00:11:46;;;;;;;;;;;;;;;9.30;100.00;98715.27;105214;1270;62164;-74
2022/09/20 00:14:12;;;;;;;;;;;;;;;9.31;100.00;98717.89;105215;1270;62067;-73
2022/09/20 00:16:39;;;;;;;;;;;;;;;9.32;100.00;98719.41;105207;1270;62153;-74
2022/09/20 00:19:06;;;;;;;;;;;;;;;9.33;100.00;98717.94;105204;1270;62171;-74
2022/09/20 00:21:32;;;;;;;;;;;;;;;9.34;100.00;98716.44;105193;1270;62258;-74
2022/09/20 00:23:59;;;;;;;;;;;;;;;9.35;100.00;98721.31;105380;1270;62031;-74
2022/09/20 00:26:26;;;;;;;;;;;;;;;9.35;100.00;98722.91;105242;1270;62301;-74
2022/09/20 00:28:52;;;;;;;;;;;;;;;9.36;100.00;98720.91;105264;1270;62132;-74
2022/09/20 00:31:18;;;;;;;;;;;;;;;9.36;100.00;98723.73;105247;1270;62097;-74
2022/09/20 00:36:30;;;;;;;;;;;;;;;9.37;100.00;98724.04;105171;1270;62217;-75
2022/09/20 00:38:56;;;;;;;;;;;;;;;9.36;100.00;98724.94;105252;1270;62181;-75
2022/09/20 00:41:23;;;;;;;;;;;;;;;9.36;100.00;98727.60;105218;1270;62077;-75
2022/09/20 00:43:49;;;;;;;;;;;;;;;9.37;100.00;98727.19;105237;1270;62017;-74
2022/09/20 00:46:34;;;;;;;;;;;;;;;9.36;100.00;98729.55;105256;1270;62277;-74
2022/09/20 00:49:04;;;;;;;;;;;;;;;9.36;100.00;98729.60;105153;1270;62149;-74
2022/09/20 00:51:33;;;;;;;;;;;;;;;9.35;100.00;98726.11;105199;1270;61938;-75
2022/09/20 00:54:00;;;;;;;;;;;;;;;9.33;100.00;98724.66;104942;1270;76212;-73
2022/09/20 00:56:29;;;;;;;;;;;;;;;9.32;100.00;98724.56;105225;1270;69985;-75
2022/09/20 00:59:01;;;;;;;;;;;;;;;9.31;100.00;98729.95;105185;1270;74622;-73
2022/09/20 01:01:27;;;;;;;;;;;;;;;9.29;100.00;98727.58;104976;1270;62133;-74
2022/09/20 01:03:53;;;;;;;;;;;;;;;9.29;100.00;98729.02;105236;1270;62145;-75
2022/09/20 01:06:19;;;;;;;;;;;;;;;9.27;100.00;98723.99;105182;1270;62541;-74
2022/09/20 01:08:47;;;;;;;;;;;;;;;9.27;100.00;98726.83;105223;1270;62114;-74
2022/09/20 01:11:14;;;;;;;;;;;;;;;9.28;100.00;98724.84;105189;1270;73455;-74
2022/09/20 01:13:39;;;;;;;;;;;;;;;9.28;100.00;98721.98;105207;1270;62076;-74
2022/09/20 01:16:07;;;;;;;;;;;;;;;9.29;100.00;98722.98;105195;1271;62618;-74
2022/09/20 01:18:33;;;;;;;;;;;;;;;9.29;100.00;98726.50;105201;1270;62111;-74
2022/09/20 01:21:00;;;;;;;;;;;;;;;9.29;100.00;98725.44;105230;1271;62098;-74
2022/09/20 01:23:36;;;;;;;;;;;;;;;9.28;100.00;98722.30;105329;1270;73338;-74
2022/09/20 01:26:29;;;;;;;;;;;;;;;9.29;100.00;98719.22;105206;1270;62161;-74
2022/09/20 01:29:17;;;;;;;;;;;;;;;9.30;100.00;98718.30;104616;1278;62089;-74
2022/09/20 01:31:46;;;;;;;;;;;;;;;9.29;100.00;98712.48;104052;1284;76129;-72
2022/09/20 01:34:16;;;;;;;;;;;;;;;9.30;100.00;98714.95;104066;1285;69021;-74
2022/09/20 01:36:44;;;;;;;;;;;;;;;9.30;100.00;98719.73;104016;1285;73794;-74
2022/09/20 01:39:16;;;;;;;;;;;;;;;9.29;100.00;98721.53;104052;1285;62207;-75
2022/09/20 01:41:46;;;;;;;;;;;;;;;9.30;100.00;98722.21;104058;1285;62263;-74
2022/09/20 01:44:19;;;;;;;;;;;;;;;9.29;100.00;98719.92;104058;1285;76317;-74
2022/09/20 01:46:49;;;;;;;;;;;;;;;9.30;100.00;98724.52;104063;1284;69656;-73
2022/09/20 01:49:24;;;;;;;;;;;;;;;9.30;100.00;98725.42;104068;1284;72369;-73
2022/09/20 01:52:02;;;;;;;;;;;;;;;9.28;100.00;98727.45;104059;1285;62174;-73
2022/09/20 01:54:47;;;;;;;;;;;;;;;9.28;100.00;98730.69;104095;1284;62122;-74
2022/09/20 01:57:25;;;;;;;;;;;;;;;9.29;100.00;98730.25;104067;1284;77204;-74
2022/09/20 02:03:30;;;;;;;;;;;;;;;9.29;100.00;98731.48;104081;1285;73487;-73
2022/09/20 02:06:14;;;;;;;;;;;;;;;9.28;100.00;98734.39;103624;1284;62071;-75
2022/09/20 02:09:02;;;;;;;;;;;;;;;9.29;100.00;98734.48;104114;1280;62187;-74
2022/09/20 02:11:36;;;;;;;;;;;;;;;9.29;100.00;98734.10;104653;1278;75301;-74
2022/09/20 02:14:04;;;;;;;;;;;;;;;9.29;100.00;98733.25;104595;1277;70872;-75
2022/09/20 02:16:40;;;;;;;;;;;;;;;9.29;100.00;98734.15;104656;1278;74756;-75
2022/09/20 02:19:08;;;;;;;;;;;;;;;9.29;100.00;98735.04;104610;1278;62139;-75
2022/09/20 02:21:37;;;;;;;;;;;;;;;9.28;100.00;98733.33;104615;1278;62079;-73
2022/09/20 02:24:06;;;;;;;;;;;;;;;9.27;100.00;98731.77;104484;1278;77461;-76
2022/09/20 02:26:50;;;;;;;;;;;;;;;9.28;100.00;98732.98;104587;1277;69318;-75
2022/09/20 02:29:19;;;;;;;;;;;;;;;9.28;100.00;98732.83;104578;1277;73472;-74
2022/09/20 02:32:04;;;;;;;;;;;;;;;9.29;100.00;98736.45;104601;1277;62299;-73
2022/09/20 02:34:48;;;;;;;;;;;;;;;9.28;100.00;98737.02;104616;1278;62171;-73
2022/09/20 02:37:27;;;;;;;;;;;;;;;9.29;100.00;98737.70;104590;1278;76129;-74
2022/09/20 02:40:19;;;;;;;;;;;;;;;9.29;100.00;98738.94;104646;1277;67847;-74
2022/09/20 02:42:55;;;;;;;;;;;;;;;9.28;100.00;98742.73;104865;1270;74497;-74
2022/09/20 02:45:35;;;;;;;;;;;;;;;9.28;100.00;98745.75;105195;1270;62639;-72
2022/09/20 02:48:03;;;;;;;;;;;;;;;9.28;100.00;98743.60;105230;1270;62519;-74
2022/09/20 02:50:48;;;;;;;;;;;;;;;9.28;100.00;98742.21;105199;1271;76231;-74
2022/09/20 02:53:37;;;;;;;;;;;;;;;9.27;100.00;98748.99;105189;1271;69244;-74
2022/09/20 02:56:24;;;;;;;;;;;;;;;9.26;100.00;98751.01;104608;1278;73400;-74
2022/09/20 02:58:59;;;;;;;;;;;;;;;9.27;100.00;98757.51;104574;1278;62072;-74
2022/09/20 03:01:35;;;;;;;;;;;;;;;9.27;100.00;98752.02;104631;1278;62111;-74
2022/09/20 03:04:07;;;;;;;;;;;;;;;9.27;100.00;98752.20;104552;1277;77413;-74
2022/09/20 03:06:33;;;;;;;;;;;;;;;9.26;100.00;98752.58;104601;1278;69546;-74
2022/09/20 03:09:02;;;;;;;;;;;;;;;9.26;100.00;98750.67;104607;1277;62191;-74
2022/09/20 03:11:37;;;;;;;;;;;;;;;9.26;100.00;98749.27;104607;1276;62141;-74
2022/09/20 03:14:04;;;;;;;;;;;;;;;9.25;100.00;98753.39;104566;1277;62089;-74
2022/09/20 03:16:48;;;;;;;;;;;;;;;9.25;100.00;98758.17;104623;1278;77312;-74
2022/09/20 03:19:25;;;;;;;;;;;;;;;9.23;100.00;98761.11;104463;1278;70514;-74
2022/09/20 03:22:02;;;;;;;;;;;;;;;9.22;100.00;98762.74;104620;1278;74357;-74
2022/09/20 03:24:37;;;;;;;;;;;;;;;9.22;100.00;98764.04;104635;1278;62128;-74
2022/09/20 03:27:13;;;;;;;;;;;;;;;9.21;100.00;98767.21;104639;1278;62138;-74
2022/09/20 03:29:39;;;;;;;;;;;;;;;9.21;100.00;98769.71;104633;1278;76589;-73
2022/09/20 03:32:07;;;;;;;;;;;;;;;9.22;100.00;98770.39;104665;1277;62251;-74
2022/09/20 03:34:39;;;;;;;;;;;;;;;9.21;100.00;98772.01;105113;1271;73357;-75
2022/09/20 03:37:24;;;;;;;;;;;;;;;9.21;100.00;98777.17;105251;1270;62064;-74
2022/09/20 03:39:49;;;;;;;;;;;;;;;9.21;100.00;98777.73;105219;1270;62162;-74
2022/09/20 03:42:22;;;;;;;;;;;;;;;9.20;100.00;98777.05;105267;1271;62133;-74
2022/09/20 03:45:07;;;;;;;;;;;;;;;9.20;100.00;98777.43;105175;1271;70868;-74
2022/09/20 03:47:39;;;;;;;;;;;;;;;9.21;100.00;98781.95;105172;1271;72565;-74
2022/09/20 03:50:23;;;;;;;;;;;;;;;9.20;100.00;98784.14;105168;1271;62079;-76
2022/09/20 03:52:59;;;;;;;;;;;;;;;9.20;100.00;98781.66;105236;1271;62023;-73
2022/09/20 03:55:44;;;;;;;;;;;;;;;9.22;100.00;98783.69;104917;1271;76074;-74
2022/09/20 03:58:20;;;;;;;;;;;;;;;9.21;100.00;98783.36;105188;1271;68887;-73
2022/09/20 04:00:59;;;;;;;;;;;;;;;9.20;100.00;98785.20;105171;1271;74625;-74
2022/09/20 04:03:40;;;;;;;;;;;;;;;9.20;100.00;98785.57;105157;1271;62047;-73
2022/09/20 04:06:11;;;;;;;;;;;;;;;9.19;100.00;98781.89;104960;1271;62280;-73
2022/09/20 04:08:38;;;;;;;;;;;;;;;9.19;100.00;98785.85;105194;1270;76990;-74
2022/09/20 04:11:15;;;;;;;;;;;;;;;9.18;100.00;98788.38;105140;1272;62096;-74
2022/09/20 04:13:44;;;;;;;;;;;;;;;9.17;100.00;98793.02;105141;1271;73391;-75
2022/09/20 04:16:28;;;;;;;;;;;;;;;9.16;100.00;98794.17;105155;1271;62059;-76
2022/09/20 04:18:57;;;;;;;;;;;;;;;9.17;100.00;98796.45;105213;1271;62074;-74
2022/09/20 04:21:35;;;;;;;;;;;;;;;9.17;100.00;98796.63;105141;1271;76292;-74
2022/09/20 04:24:21;;;;;;;;;;;;;;;9.17;100.00;98795.17;105156;1270;69630;-74
2022/09/20 04:26:51;;;;;;;;;;;;;;;9.18;100.00;98800.77;105192;1271;74460;-74
2022/09/20 04:29:39;;;;;;;;;;;;;;;9.19;100.00;98800.39;105139;1271;62135;-74
2022/09/20 04:32:14;;;;;;;;;;;;;;;9.20;100.00;98802.25;105176;1271;62065;-74
2022/09/20 04:37:42;;;;;;;;;;;;;;;9.19;100.00;98802.15;105168;1270;70210;-74
2022/09/20 04:40:19;;;;;;;;;;;;;;;9.18;100.00;98803.05;105147;1270;74331;-74
2022/09/20 04:42:50;;;;;;;;;;;;;;;9.19;100.00;98801.06;105155;1271;62183;-74
2022/09/20 04:45:27;;;;;;;;;;;;;;;9.19;100.00;98800.02;105117;1271;61976;-73
2022/09/20 04:48:29;;;;;;;;;;;;;;;9.20;100.00;98800.31;105242;1271;76685;-74
2022/09/20 04:50:58;;;;;;;;;;;;;;;9.21;100.00;98805.70;104622;1277;69250;-74
2022/09/20 04:53:42;;;;;;;;;;;;;;;9.22;100.00;98809.55;104647;1277;74270;-73
2022/09/20 04:56:10;;;;;;;;;;;;;;;9.22;100.00;98808.98;104592;1278;62165;-74
2022/09/20 04:58:37;;;;;;;;;;;;;;;9.24;100.00;98809.23;104599;1277;62079;-73
2022/09/20 05:01:15;;;;;;;;;;;;;;;9.26;100.00;98810.55;104636;1277;77139;-74
2022/09/20 05:04:00;;;;;;;;;;;;;;;9.27;100.00;98810.14;104620;1278;70479;-74
2022/09/20 05:06:57;;;;;;;;;;;;;;;9.29;100.00;98806.80;104603;1278;73457;-73
2022/09/20 05:09:32;;;;;;;;;;;;;;;9.33;100.00;98808.85;104482;1280;62271;-74
2022/09/20 05:12:24;;;;;;;;;;;;;;;9.37;100.00;98811.63;104626;1277;61340;-73
2022/09/20 05:15:03;;;;;;;;;;;;;;;9.39;100.00;98813.79;104122;1284;76278;-73
2022/09/20 05:17:41;;;;;;;;;;;;;;;9.42;100.00;98816.23;104098;1282;69506;-74
2022/09/20 05:20:28;;;;;;;;;;;;;;;9.45;100.00;98818.15;104104;1284;73535;-75
2022/09/20 05:22:54;;;;;;;;;;;;;;;9.49;100.00;98822.71;104173;1284;62209;-74
2022/09/20 05:25:39;;;;;;;;;;;;;;;9.54;100.00;98825.79;104445;1278;62791;-74
2022/09/20 05:28:07;;;;;;;;;;;;;;;9.58;100.00;98825.65;104732;1277;77782;-74
2022/09/20 05:30:39;;;;;;;;;;;;;;;9.61;100.00;98827.91;104735;1276;69615;-74
2022/09/20 05:33:13;;;;;;;;;;;;;;;9.63;100.00;98833.31;104716;1277;73573;-73
2022/09/20 05:35:58;;;;;;;;;;;;;;;9.64;100.00;98828.98;104488;1279;62296;-74
2022/09/20 05:38:42;;;;;;;;;;;;;;;9.64;100.00;98833.95;104549;1277;62136;-74
2022/09/20 05:41:17;;;;;;;;;;;;;;;9.61;100.00;98839.79;104708;1277;77501;-73
2022/09/20 05:43:51;;;;;;;;;;;;;;;9.60;100.00;98840.77;104867;1277;69703;-73
2022/09/20 05:46:27;;;;;;;;;;;;;;;9.61;100.00;98841.59;104728;1277;73346;-74
2022/09/20 05:48:53;;;;;;;;;;;;;;;9.62;100.00;98845.83;104700;1277;62063;-73
2022/09/20 05:51:19;;;;;;;;;;;;;;;9.60;100.00;98845.94;104775;1274;62285;-73
2022/09/20 05:53:59;;;;;;;;;;;;;;;9.61;100.00;98847.09;105210;1270;62180;-75
2022/09/20 05:56:31;;;;;;;;;;;;;;;9.65;100.00;98847.89;105188;1270;69559;-73
2022/09/20 05:59:30;;;;;;;;;;;;;;;9.71;100.00;98847.55;105158;1271;73337;-75
2022/09/20 06:02:02;;;;;;;;;;;;;;;9.80;100.00;98849.74;104448;1278;62129;-74
2022/09/20 06:04:33;;;;;;;;;;;;;;;9.85;100.00;98851.01;104654;1277;62091;-74
2022/09/20 06:07:02;;;;;;;;;;;;;;;9.91;100.00;98857.75;104660;1277;76219;-74
2022/09/20 06:09:43;;;;;;;;;;;;;;;9.95;100.00;98861.16;104680;1277;70745;-74
2022/09/20 06:12:28;;;;;;;;;;;;;;;10.00;100.00;98853.93;104664;1278;73115;-74
2022/09/20 06:15:00;;;;;;;;;;;;;;;10.01;100.00;98861.53;104641;1278;62206;-74
2022/09/20 06:17:32;;;;;;;;;;;;;;;10.01;100.00;98859.04;104698;1277;62246;-74
2022/09/20 06:20:10;;;;;;;;;;;;;;;9.98;100.00;98867.21;104665;1277;77120;-73
2022/09/20 06:22:38;;;;;;;;;;;;;;;9.94;100.00;98867.12;104611;1278;154293;-77
2022/09/20 06:25:09;;;;;;;;;;;;;;;9.93;100.00;98868.83;104748;1277;74446;-74
2022/09/20 06:27:40;;;;;;;;;;;;;;;9.96;100.00;98868.08;104635;1277;62190;-75
2022/09/20 06:30:17;;;;;;;;;;;;;;;9.99;100.00;98871.95;104675;1277;62164;-75
2022/09/20 06:32:53;;;;;;;;;;;;;;;9.97;100.00;98869.05;104689;1278;76425;-75
2022/09/20 06:35:21;;;;;;;;;;;;;;;9.98;100.00;98868.85;104426;1278;70636;-74
2022/09/20 06:43:36;;;;;;;;;;;;;;;9.94;100.00;98877.91;105043;1271;62091;-74
2022/09/20 06:46:02;;;;;;;;;;;;;;;9.94;100.00;98881.69;105117;1270;77211;-74
2022/09/20 06:48:30;;;;;;;;;;;;;;;9.99;100.00;98882.59;104995;1271;62563;-74
2022/09/20 06:50:57;;;;;;;;;;;;;;;10.07;100.00;98883.61;105162;1270;73349;-74
2022/09/20 06:53:36;;;;;;;;;;;;;;;10.17;100.00;98882.63;105162;1270;62647;-74
2022/09/20 06:56:02;;;;;;;;;;;;;;;10.25;100.00;98881.91;105266;1270;62059;-74
2022/09/20 06:58:28;;;;;;;;;;;;;;;10.30;100.00;98883.39;105178;1271;62137;-73
2022/09/20 07:00:54;;;;;;;;;;;;;;;10.34;100.00;98888.30;105038;1271;62319;-73
2022/09/20 07:03:20;;;;;;;;;;;;;;;10.35;100.00;98889.64;105160;1271;62148;-73
2022/09/20 07:05:46;;;;;;;;;;;;;;;10.37;100.00;98893.44;105176;1270;62187;-74
2022/09/20 07:08:12;;;;;;;;;;;;;;;10.35;100.00;98891.73;105184;1270;62045;-75
2022/09/20 07:10:38;;;;;;;;;;;;;;;10.36;100.00;98893.96;105199;1270;62081;-74
2022/09/20 07:13:05;;;;;;;;;;;;;;;10.40;100.00;98896.38;105238;1270;62171;-76
2022/09/20 07:15:32;;;;;;;;;;;;;;;10.41;100.00;98903.40;105105;1270;62188;-76
2022/09/20 07:18:01;;;;;;;;;;;;;;;10.42;100.00;98906.21;105285;1270;62070;-74
2022/09/20 07:20:27;;;;;;;;;;;;;;;10.45;100.00;98910.23;105215;1270;62170;-73
2022/09/20 07:22:53;;;;;;;;;;;;;;;10.47;100.00;98914.92;105185;1270;62171;-75
2022/09/20 07:25:19;;;;;;;;;;;;;;;10.48;100.00;98911.28;105119;1270;62607;-74
2022/09/20 07:27:45;;;;;;;;;;;;;;;10.49;100.00;98917.25;105151;1271;62177;-74
2022/09/20 07:30:13;;;;;;;;;;;;;;;10.48;100.00;98919.14;105180;1270;62115;-74
2022/09/20 07:32:40;;;;;;;;;;;;;;;10.47;100.00;98922.91;105180;1270;62072;-75
2022/09/20 07:35:08;;;;;;;;;;;;;;;10.42;100.00;98923.93;104988;1271;62295;-75
2022/09/20 07:37:34;;;;;;;;;;;;;;;10.40;100.00;98926.93;105194;1270;70392;-74
2022/09/20 07:40:00;;;;;;;;;;;;;;;10.40;100.00;98928.02;105305;1270;62063;-75
2022/09/20 07:42:28;;;;;;;;;;;;;;;10.39;100.00;98929.46;105020;1270;62221;-73
2022/09/20 07:44:54;;;;;;;;;;;;;;;10.42;100.00;98929.09;105183;1270;62164;-74
2022/09/20 07:47:24;;;;;;;;;;;;;;;10.46;100.00;98932.23;105221;1270;62192;-76
2022/09/20 07:49:51;;;;;;;;;;;;;;;10.47;100.00;98937.27;105173;1270;68353;-73
2022/09/20 07:52:18;;;;;;;;;;;;;;;10.51;100.00;98937.52;105237;1270;74397;-73
2022/09/20 07:54:44;;;;;;;;;;;;;;;10.52;100.00;98938.87;105069;1272;62285;-73
2022/09/20 07:57:12;;;;;;;;;;;;;;;10.55;100.00;98946.17;105173;1270;62098;-74
2022/09/20 07:59:37;;;;;;;;;;;;;;;10.53;100.00;98946.11;105349;1270;76678;-77
2022/09/20 08:02:04;;;;;;;;;;;;;;;10.47;100.00;98947.75;105232;1270;62207;-74
2022/09/20 08:04:31;;;;;;;;;;;;;;;10.43;100.00;98948.38;105262;1270;62175;-74
2022/09/20 08:06:57;;;;;;;;;;;;;;;10.43;100.00;98951.27;105144;1270;62131;-74
2022/09/20 08:09:23;;;;;;;;;;;;;;;10.41;100.00;98950.83;105277;1271;62184;-75
2022/09/20 08:11:50;;;;;;;;;;;;;;;10.42;100.00;98950.95;105275;1270;62145;-75
2022/09/20 08:14:16;;;;;;;;;;;;;;;10.43;100.00;98948.95;105287;1270;61990;-74
2022/09/20 08:16:44;;;;;;;;;;;;;;;10.45;100.00;98949.66;105221;1270;62134;-76
2022/09/20 08:19:21;;;;;;;;;;;;;;;10.48;100.00;98951.80;105237;1270;62633;-74
2022/09/20 08:21:48;;;;;;;;;;;;;;;10.51;100.00;98948.02;105190;1270;62176;-74
2022/09/20 08:24:16;;;;;;;;;;;;;;;10.56;100.00;98946.45;105169;1270;76079;-74
2022/09/20 08:26:42;;;;;;;;;;;;;;;10.63;100.00;98947.44;105248;1270;70198;-74
2022/09/20 08:29:08;;;;;;;;;;;;;;;10.69;100.00;98951.24;105152;1270;74327;-73
2022/09/20 08:31:37;;;;;;;;;;;;;;;10.75;100.00;98946.24;105183;1270;62097;-73
2022/09/20 08:34:05;;;;;;;;;;;;;;;10.84;100.00;98947.56;105211;1270;62142;-73
2022/09/20 08:36:33;;;;;;;;;;;;;;;10.90;100.00;98943.61;105147;1270;76756;-73
2022/09/20 08:38:59;;;;;;;;;;;;;;;10.88;100.00;98949.40;105182;1270;68157;-74
2022/09/20 08:41:43;;;;;;;;;;;;;;;10.87;100.00;98948.05;105175;1270;62435;-73
2022/09/20 08:44:10;;;;;;;;;;;;;;;10.90;100.00;98953.70;105168;1270;62075;-74
2022/09/20 08:46:38;;;;;;;;;;;;;;;10.91;100.00;98952.73;105221;1270;62012;-74
2022/09/20 08:49:06;;;;;;;;;;;;;;;10.95;100.00;98956.39;105127;1270;77320;-73
2022/09/20 08:51:36;;;;;;;;;;;;;;;11.09;100.00;98955.10;105119;1270;69586;-74
2022/09/20 08:54:04;;;;;;;;;;;;;;;11.35;100.00;98959.66;105188;1270;71548;-76
2022/09/20 08:56:35;;;;;;;;;;;;;;;11.58;100.00;98962.13;105144;1270;62425;-74
2022/09/20 08:59:01;;;;;;;;;;;;;;;11.73;100.00;98960.89;105132;1270;62172;-75
2022/09/20 09:01:30;;;;;;;;;;;;;;;11.91;100.00;98965.84;104989;1270;76211;-75
2022/09/20 09:04:16;;;;;;;;;;;;;;;12.04;100.00;98965.58;104999;1270;69327;-74
2022/09/20 09:06:43;;;;;;;;;;;;;;;12.13;100.00;98966.19;104692;1277;73620;-73
2022/09/20 09:09:40;;;;;;;;;;;;;;;12.07;100.00;98961.77;104819;1277;62070;-73
2022/09/20 09:12:13;;;;;;;;;;;;;;;12.04;100.00;98962.17;104353;1284;62260;-73
2022/09/20 09:14:48;;;;;;;;;;;;;;;12.05;100.00;98964.09;104277;1284;77663;-74
2022/09/20 09:17:16;;;;;;;;;;;;;;;12.00;100.00;98962.65;104190;1284;69416;-73
2022/09/20 09:19:45;;;;;;;;;;;;;;;12.08;100.00;98964.89;104184;1284;73608;-74
2022/09/20 09:22:17;;;;;;;;;;;;;;;12.19;100.00;98964.26;104168;1283;62252;-75
2022/09/20 09:24:43;;;;;;;;;;;;;;;12.33;100.00;98966.09;104172;1282;62313;-74
2022/09/20 09:27:15;;;;;;;;;;;;;;;12.39;100.00;98966.05;104152;1284;62209;-74
2022/09/20 09:29:54;;;;;;;;;;;;;;;12.40;100.00;98967.06;104293;1284;70892;-75
2022/09/20 09:32:27;;;;;;;;;;;;;;;12.48;100.00;98966.05;104224;1284;72328;-74
2022/09/20 09:34:55;;;;;;;;;;;;;;;12.42;100.00;98967.79;104245;1284;62243;-75
2022/09/20 09:37:22;;;;;;;;;;;;;;;12.24;100.00;98967.13;104225;1284;62140;-75
2022/09/20 09:40:06;;;;;;;;;;;;;;;12.10;100.00;98968.75;104176;1284;76058;-75
2022/09/20 09:42:32;;;;;;;;;;;;;;;11.98;100.00;98973.66;104145;1284;69500;-75
2022/09/20 09:45:09;;;;;;;;;;;;;;;12.01;100.00;98970.05;104534;1276;62110;-76
2022/09/20 09:47:37;;;;;;;;;;;;;;;12.12;100.00;98966.27;104763;1276;62375;-74
2022/09/20 09:50:04;;;;;;;;;;;;;;;12.11;100.00;98968.30;105137;1270;62072;-74
2022/09/20 09:52:32;;;;;;;;;;;;;;;12.18;100.00;98966.01;104996;1271;76259;-74
2022/09/20 09:55:00;;;;;;;;;;;;;;;12.38;100.00;98960.93;105210;1270;69279;-75
2022/09/20 09:57:31;;;;;;;;;;;;;;;12.75;100.00;98962.59;105243;1270;73445;-74
2022/09/20 09:59:57;;;;;;;;;;;;;;;13.15;100.00;98954.14;105211;1270;62189;-74
2022/09/20 10:02:23;;;;;;;;;;;;;;;13.41;100.00;98947.13;105251;1270;62085;-73
2022/09/20 10:05:09;;;;;;;;;;;;;;;13.65;100.00;98945.92;105242;1268;62184;-73
2022/09/20 10:08:04;;;;;;;;;;;;;;;14.05;100.00;98942.00;105219;1270;70092;-75
2022/09/20 10:10:38;;;;;;;;;;;;;;;14.33;100.00;98940.41;104647;1277;74358;-74
2022/09/20 10:13:13;;;;;;;;;;;;;;;14.33;100.00;98935.59;104766;1277;62174;-74
2022/09/20 10:15:44;;;;;;;;;;;;;;;14.44;100.00;98936.40;104480;1278;62087;-73
2022/09/20 10:18:29;;;;;;;;;;;;;;;14.62;100.00;98931.04;104725;1277;76676;-73
2022/09/20 10:21:00;;;;;;;;;;;;;;;14.85;100.00;98928.48;104592;1277;68502;-74
2022/09/20 10:23:35;;;;;;;;;;;;;;;14.99;100.00;98930.69;104600;1277;73366;-73
2022/09/20 10:26:10;;;;;;;;;;;;;;;15.12;100.00;98929.80;104613;1277;62106;-74
2022/09/20 10:28:47;;;;;;;;;;;;;;;15.45;100.00;98924.05;104623;1277;62185;-74
2022/09/20 10:31:24;;;;;;;;;;;;;;;15.44;100.00;98921.92;104593;1277;76258;-74
2022/09/20 10:34:09;;;;;;;;;;;;;;;15.13;100.00;98930.38;104648;1278;70668;-74
2022/09/20 10:36:43;;;;;;;;;;;;;;;14.59;100.00;98929.52;104572;1277;73445;-74
2022/09/20 10:39:27;;;;;;;;;;;;;;;14.29;100.00;98928.95;104649;1276;62174;-73
2022/09/20 10:44:48;;;;;;;;;;;;;;;13.65;100.00;98934.38;104695;1276;77253;-73
2022/09/20 10:47:19;;;;;;;;;;;;;;;13.47;100.00;98935.27;104860;1270;70500;-73
2022/09/20 10:50:16;;;;;;;;;;;;;;;13.32;100.00;98936.27;105171;1270;74399;-74
2022/09/20 10:52:50;;;;;;;;;;;;;;;13.18;100.00;98938.93;104562;1277;62116;-73
2022/09/20 10:55:21;;;;;;;;;;;;;;;13.10;100.00;98937.23;104648;1277;62144;-74
2022/09/20 10:57:53;;;;;;;;;;;;;;;12.99;100.00;98940.20;104642;1277;76166;-74
2022/09/20 11:00:22;;;;;;;;;;;;;;;12.94;100.00;98939.54;104613;1277;69180;-75
2022/09/20 11:03:14;;;;;;;;;;;;;;;12.99;100.00;98940.95;104577;1277;73549;-76
2022/09/20 11:05:58;;;;;;;;;;;;;;;13.16;100.00;98939.62;103958;1284;62479;-74
2022/09/20 11:08:32;;;;;;;;;;;;;;;13.48;100.00;98931.25;104006;1284;62102;-75
2022/09/20 11:11:02;;;;;;;;;;;;;;;13.94;100.00;98928.77;103974;1284;76505;-75
2022/09/20 11:13:41;;;;;;;;;;;;;;;14.51;100.00;98925.64;104007;1284;70612;-74
2022/09/20 11:16:10;;;;;;;;;;;;;;;14.92;100.00;98923.65;103979;1284;73446;-74
2022/09/20 11:18:37;;;;;;;;;;;;;;;14.83;100.00;98925.68;103952;1284;62273;-74
2022/09/20 11:21:06;;;;;;;;;;;;;;;14.63;100.00;98928.26;104076;1284;62078;-75
2022/09/20 11:23:33;;;;;;;;;;;;;;;14.51;100.00;98927.97;103976;1284;76125;-73
2022/09/20 11:26:15;;;;;;;;;;;;;;;14.51;100.00;98926.58;103992;1283;62301;-74
2022/09/20 11:28:45;;;;;;;;;;;;;;;14.52;100.00;98934.14;104063;1278;73259;-74
2022/09/20 11:31:23;;;;;;;;;;;;;;;14.59;100.00;98931.05;104465;1277;62081;-74
2022/09/20 11:34:07;;;;;;;;;;;;;;;14.89;100.00;98933.30;104475;1277;62150;-74
2022/09/20 11:36:56;;;;;;;;;;;;;;;15.14;100.00;98926.77;104468;1277;77080;-73
2022/09/20 11:39:31;;;;;;;;;;;;;;;15.30;100.00;98924.67;104500;1277;69639;-74
2022/09/20 11:41:59;;;;;;;;;;;;;;;15.19;100.00;98928.29;104489;1272;72740;-74
2022/09/20 11:44:25;;;;;;;;;;;;;;;14.95;100.00;98935.70;105177;1270;62255;-75
2022/09/20 11:46:58;;;;;;;;;;;;;;;14.61;100.00;98936.48;105097;1270;62366;-75
2022/09/20 11:49:27;;;;;;;;;;;;;;;14.25;100.00;98948.00;105164;1270;76427;-76
2022/09/20 11:51:55;;;;;;;;;;;;;;;13.78;100.00;98955.05;105208;1270;70244;-74
2022/09/20 11:54:34;;;;;;;;;;;;;;;13.08;100.00;98957.73;105334;1270;73602;-73
2022/09/20 11:57:00;;;;;;;;;;;;;;;12.55;100.00;98957.88;105242;1270;62217;-73
2022/09/20 11:59:33;;;;;;;;;;;;;;;12.32;100.00;98956.02;105267;1270;62061;-74
2022/09/20 12:02:01;;;;;;;;;;;;;;;12.20;100.00;98961.19;105194;1270;77222;-73
2022/09/20 12:04:29;;;;;;;;;;;;;;;12.17;100.00;98962.16;105267;1270;70157;-74
2022/09/20 12:07:01;;;;;;;;;;;;;;;12.24;100.00;98962.65;105180;1270;73283;-73
2022/09/20 12:09:38;;;;;;;;;;;;;;;12.41;100.00;98956.59;105160;1270;62059;-73
2022/09/20 12:12:33;;;;;;;;;;;;;;;12.76;100.00;98957.73;105174;1270;63626;-73
2022/09/20 12:15:00;;;;;;;;;;;;;;;13.07;100.00;98955.71;104565;1277;75375;-73
2022/09/20 12:17:44;;;;;;;;;;;;;;;13.26;100.00;98958.13;104400;1279;68889;-74
2022/09/20 12:20:29;;;;;;;;;;;;;;;13.33;100.00;98964.55;104554;1276;73480;-74
2022/09/20 12:23:15;;;;;;;;;;;;;;;13.21;100.00;98962.95;104449;1278;62131;-74
2022/09/20 12:26:00;;;;;;;;;;;;;;;13.05;100.00;98963.29;104602;1277;62105;-74
2022/09/20 12:28:38;;;;;;;;;;;;;;;12.77;100.00;98962.06;104584;1277;77202;-76
2022/09/20 12:31:18;;;;;;;;;;;;;;;12.54;100.00;98967.91;104645;1277;68992;-76
2022/09/20 12:33:59;;;;;;;;;;;;;;;12.37;100.00;98964.59;104588;1277;73516;-73
2022/09/20 12:36:27;;;;;;;;;;;;;;;12.20;100.00;98966.52;104484;1278;62198;-74
2022/09/20 12:38:56;;;;;;;;;;;;;;;12.12;100.00;98966.98;104431;1278;62264;-75
2022/09/20 12:41:22;;;;;;;;;;;;;;;12.06;100.00;98967.02;104526;1277;76150;-75
2022/09/20 12:43:57;;;;;;;;;;;;;;;12.03;100.00;98968.34;104484;1278;70418;-73
2022/09/20 12:46:32;;;;;;;;;;;;;;;12.00;100.00;98968.35;104621;1278;73410;-75
2022/09/20 12:55:28;;;;;;;;;;;;;;;12.26;100.00;98956.33;104516;1278;76372;-74
2022/09/20 12:58:01;;;;;;;;;;;;;;;12.41;100.00;98951.30;104531;1277;69494;-73
2022/09/20 13:00:30;;;;;;;;;;;;;;;12.55;100.00;98953.77;104503;1277;73459;-74
2022/09/20 13:02:58;;;;;;;;;;;;;;;12.71;100.00;98949.86;104518;1277;62129;-74
2022/09/20 13:05:31;;;;;;;;;;;;;;;12.86;100.00;98949.99;104522;1277;62048;-75
2022/09/20 13:08:01;;;;;;;;;;;;;;;13.01;100.00;98951.86;104574;1278;77186;-74
2022/09/20 13:10:32;;;;;;;;;;;;;;;13.10;100.00;98947.56;104556;1277;68425;-74
2022/09/20 13:13:01;;;;;;;;;;;;;;;13.12;100.00;98950.60;104614;1277;73752;-76
2022/09/20 13:15:28;;;;;;;;;;;;;;;13.16;100.00;98953.39;104576;1277;62103;-75
2022/09/20 13:17:57;;;;;;;;;;;;;;;13.23;100.00;98952.50;104638;1277;62220;-74
2022/09/20 13:20:25;;;;;;;;;;;;;;;13.44;100.00;98947.22;104638;1277;76294;-74
2022/09/20 13:22:53;;;;;;;;;;;;;;;13.80;100.00;98944.36;104541;1277;70699;-73
2022/09/20 13:25:22;;;;;;;;;;;;;;;14.10;100.00;98937.98;104572;1278;62227;-74